Time;durP1;ratioP1;P1;durP2;ratioP2;P2;SDS_P1;SDS_P2;PMS_P1;PMS_P2;Temp;Humidity;BMP_temperature;BMP_pressure;BME280_temperature;BME280_humidity;BME280_pressure;Samples;Min_cycle;Max_cycle;Signal;HPM_P1;HPM_P2
2021/03/01 00:01:33;;;;;;;40.70;26.90;;;4.70;90.40;;;;;;4915878;29;20114;-75
2021/03/01 00:03:59;;;;;;;47.63;29.90;;;4.60;90.40;;;;;;4898995;29;20433;-75
2021/03/01 00:06:24;;;;;;;40.03;26.53;;;4.60;90.50;;;;;;4914042;29;20047;-75
2021/03/01 00:08:50;;;;;;;40.47;26.80;;;4.70;90.50;;;;;;4898975;29;20366;-75
2021/03/01 00:11:16;;;;;;;54.13;30.37;;;4.60;90.50;;;;;;4913674;29;20056;-75
2021/03/01 00:13:41;;;;;;;46.33;28.20;;;4.60;90.60;;;;;;4914905;29;20119;-74
2021/03/01 00:16:07;;;;;;;40.40;26.87;;;4.60;90.60;;;;;;4929024;29;20123;-78
2021/03/01 00:18:32;;;;;;;40.87;26.13;;;4.60;90.60;;;;;;4915377;29;20039;-75
2021/03/01 00:20:58;;;;;;;43.63;26.97;;;4.50;90.70;;;;;;4915018;29;20148;-75
2021/03/01 00:23:24;;;;;;;46.63;28.93;;;4.50;90.70;;;;;;4913960;29;20225;-74
2021/03/01 00:25:49;;;;;;;39.77;27.67;;;4.50;90.80;;;;;;4913967;29;20507;-75
2021/03/01 00:28:15;;;;;;;41.97;28.27;;;4.40;90.80;;;;;;4910329;29;20084;-75
2021/03/01 00:30:40;;;;;;;49.17;30.37;;;4.40;90.90;;;;;;4880023;29;20390;-74
2021/03/01 00:33:07;;;;;;;45.70;28.17;;;4.40;91.00;;;;;;4910731;29;20041;-78
2021/03/01 00:35:33;;;;;;;45.10;28.80;;;4.40;91.00;;;;;;4894864;29;20029;-75
2021/03/01 00:37:59;;;;;;;50.90;30.43;;;4.30;91.00;;;;;;4895718;29;20024;-75
2021/03/01 00:40:24;;;;;;;43.37;29.60;;;4.40;91.10;;;;;;4894724;29;20040;-75
2021/03/01 00:42:51;;;;;;;44.60;28.70;;;4.40;91.10;;;;;;4919775;29;20036;-75
2021/03/01 00:45:17;;;;;;;44.27;29.37;;;4.40;91.10;;;;;;4897597;29;20036;-75
2021/03/01 00:47:42;;;;;;;46.60;29.03;;;4.40;91.10;;;;;;4914827;29;20080;-74
2021/03/01 00:50:09;;;;;;;43.10;28.57;;;4.30;91.10;;;;;;4913127;29;20040;-76
2021/03/01 00:52:34;;;;;;;46.33;30.37;;;4.30;91.20;;;;;;4913645;29;20457;-75
2021/03/01 00:55:00;;;;;;;43.33;29.60;;;4.30;91.20;;;;;;4913968;29;20142;-75
2021/03/01 00:57:26;;;;;;;47.67;30.17;;;4.30;91.20;;;;;;4897425;29;20032;-74
2021/03/01 00:59:51;;;;;;;45.80;31.77;;;4.30;91.20;;;;;;4898448;29;20477;-75
2021/03/01 01:02:18;;;;;;;59.37;35.83;;;4.30;91.20;;;;;;4897051;29;20056;-75
2021/03/01 01:04:43;;;;;;;70.20;40.97;;;4.40;91.20;;;;;;4899019;29;20107;-75
2021/03/01 01:07:09;;;;;;;90.23;48.37;;;4.50;91.20;;;;;;4913649;29;20473;-77
2021/03/01 01:09:34;;;;;;;97.90;51.30;;;4.40;91.20;;;;;;4882182;29;20067;-76
2021/03/01 01:12:00;;;;;;;114.27;55.93;;;4.50;91.20;;;;;;4897901;29;20047;-75
2021/03/01 01:14:26;;;;;;;156.57;65.93;;;4.50;91.20;;;;;;4912957;29;20044;-75
2021/03/01 01:16:52;;;;;;;173.50;69.40;;;4.50;91.20;;;;;;4897509;29;20065;-76
2021/03/01 01:19:18;;;;;;;176.27;74.93;;;4.50;91.20;;;;;;4913362;29;20028;-75
2021/03/01 01:21:43;;;;;;;180.57;77.33;;;4.60;91.30;;;;;;4897816;29;20532;-75
2021/03/01 01:24:09;;;;;;;185.10;80.30;;;4.60;91.30;;;;;;4913584;29;20040;-75
2021/03/01 01:26:35;;;;;;;198.07;81.20;;;4.70;91.20;;;;;;4913070;29;20394;-75
2021/03/01 01:29:00;;;;;;;219.80;88.00;;;4.60;91.20;;;;;;4898188;29;20039;-74
2021/03/01 01:31:26;;;;;;;193.67;82.60;;;4.60;91.20;;;;;;4928290;29;20040;-75
2021/03/01 01:33:52;;;;;;;187.93;80.70;;;4.60;91.30;;;;;;4913712;29;20055;-75
2021/03/01 01:36:17;;;;;;;210.40;86.27;;;4.60;91.20;;;;;;4914221;29;20071;-75
2021/03/01 01:38:43;;;;;;;196.87;83.83;;;4.70;91.20;;;;;;4914752;29;20366;-75
2021/03/01 01:41:09;;;;;;;203.50;84.67;;;4.60;91.10;;;;;;4913533;29;20115;-75
2021/03/01 01:43:34;;;;;;;191.53;80.07;;;4.60;91.20;;;;;;4912963;29;20677;-75
2021/03/01 01:46:00;;;;;;;213.10;87.73;;;4.70;91.20;;;;;;4913635;29;20034;-75
2021/03/01 01:48:26;;;;;;;192.90;81.03;;;4.70;91.00;;;;;;4912476;29;20034;-74
2021/03/01 01:50:51;;;;;;;186.90;81.70;;;4.60;91.00;;;;;;4913853;29;20478;-75
2021/03/01 01:53:17;;;;;;;185.50;80.97;;;4.60;91.00;;;;;;4912964;29;20067;-78
2021/03/01 01:55:43;;;;;;;201.33;85.07;;;4.60;91.10;;;;;;4913513;29;20025;-75
2021/03/01 01:58:09;;;;;;;203.57;85.93;;;4.60;91.10;;;;;;4912559;29;20053;-75
2021/03/01 02:00:45;;;;;;;199.07;85.87;;;4.60;91.10;;;;;;4912057;29;20612;-75
2021/03/01 02:03:35;;;;;;;227.20;89.80;;;4.60;91.10;;;;;;4917805;29;20362;-75
2021/03/01 02:06:23;;;;;;;218.70;87.90;;;4.50;91.10;;;;;;4916445;29;20028;-75
2021/03/01 02:09:19;;;;;;;214.80;87.90;;;4.40;91.20;;;;;;4916689;29;20028;-75
2021/03/01 02:11:47;;;;;;;214.87;86.87;;;4.40;91.30;;;;;;4900455;29;20580;-74
2021/03/01 02:14:31;;;;;;;229.77;90.23;;;4.40;91.30;;;;;;4916537;29;20040;-75
2021/03/01 02:16:58;;;;;;;231.47;90.50;;;4.40;91.40;;;;;;4915990;29;20063;-74
2021/03/01 02:19:25;;;;;;;227.63;89.40;;;4.40;91.40;;;;;;4915174;29;20029;-75
2021/03/01 02:21:51;;;;;;;238.80;88.83;;;4.40;91.50;;;;;;4917484;29;20449;-74
2021/03/01 02:24:38;;;;;;;253.47;94.43;;;4.40;91.50;;;;;;4917645;29;20078;-76
2021/03/01 02:27:05;;;;;;;233.23;89.97;;;4.40;91.50;;;;;;4910205;29;20047;-74
2021/03/01 02:29:33;;;;;;;229.87;86.37;;;4.40;91.50;;;;;;4915453;29;20036;-75
2021/03/01 02:32:02;;;;;;;249.07;92.37;;;4.50;91.60;;;;;;4916390;29;20048;-75
2021/03/01 02:34:34;;;;;;;247.23;94.90;;;4.40;91.60;;;;;;4916192;29;20032;-75
2021/03/01 02:37:04;;;;;;;259.17;96.63;;;4.40;91.60;;;;;;4897114;29;20115;-75
2021/03/01 02:39:32;;;;;;;249.33;91.67;;;4.40;91.60;;;;;;4912510;29;20024;-74
2021/03/01 02:41:59;;;;;;;250.07;89.80;;;4.40;91.60;;;;;;4912788;29;20029;-74
2021/03/01 02:44:26;;;;;;;241.10;89.93;;;4.40;91.70;;;;;;4896388;29;20393;-74
2021/03/01 02:46:54;;;;;;;285.57;97.83;;;4.40;91.70;;;;;;4898459;29;20036;-74
2021/03/01 02:49:19;;;;;;;245.60;92.80;;;4.40;91.70;;;;;;4912993;29;20504;-77
2021/03/01 02:51:49;;;;;;;256.97;92.97;;;4.40;91.80;;;;;;4896342;29;20024;-74
2021/03/01 02:54:17;;;;;;;254.00;91.07;;;4.40;91.80;;;;;;4921208;29;20068;-74
2021/03/01 02:56:46;;;;;;;250.80;92.40;;;4.40;91.80;;;;;;4914835;29;20082;-74
2021/03/01 02:59:12;;;;;;;246.60;90.47;;;4.40;91.80;;;;;;4915950;29;20658;-75
2021/03/01 03:01:38;;;;;;;251.50;92.30;;;4.40;91.80;;;;;;4899230;29;20040;-75
2021/03/01 03:04:06;;;;;;;237.20;88.70;;;4.40;91.70;;;;;;4899960;29;20036;-75
2021/03/01 03:06:34;;;;;;;229.83;88.80;;;4.40;91.70;;;;;;4914858;29;20032;-75
2021/03/01 03:09:01;;;;;;;240.47;91.53;;;4.40;91.70;;;;;;4917157;29;20103;-75
2021/03/01 03:11:29;;;;;;;242.87;88.33;;;4.40;91.80;;;;;;4914487;29;20056;-75
2021/03/01 03:13:57;;;;;;;234.63;88.73;;;4.40;91.70;;;;;;4914663;29;20400;-74
2021/03/01 03:16:25;;;;;;;229.57;84.73;;;4.40;91.80;;;;;;4899804;29;20028;-77
2021/03/01 03:18:54;;;;;;;229.40;84.27;;;4.30;91.70;;;;;;4917027;29;20051;-74
2021/03/01 03:21:20;;;;;;;230.77;83.50;;;4.30;91.70;;;;;;4916814;29;20116;-75
2021/03/01 03:23:46;;;;;;;239.17;86.57;;;4.20;91.70;;;;;;4899074;29;20890;-75
2021/03/01 03:26:13;;;;;;;220.80;82.77;;;4.30;91.80;;;;;;4899454;29;20032;-75
2021/03/01 03:28:43;;;;;;;238.33;88.57;;;4.30;91.80;;;;;;4899292;29;20118;-74
2021/03/01 03:31:10;;;;;;;231.33;85.70;;;4.40;91.80;;;;;;4904604;29;20033;-74
2021/03/01 03:33:40;;;;;;;197.20;73.73;;;4.40;91.70;;;;;;4911373;29;20036;-75
2021/03/01 03:36:07;;;;;;;208.57;79.53;;;4.40;91.60;;;;;;4915149;29;20040;-75
2021/03/01 03:38:38;;;;;;;204.43;81.87;;;4.40;91.60;;;;;;4916149;29;20104;-74
2021/03/01 03:41:07;;;;;;;210.90;79.17;;;4.40;91.60;;;;;;4915326;29;20032;-74
2021/03/01 03:43:34;;;;;;;192.70;73.10;;;4.40;91.60;;;;;;4914205;29;20027;-74
2021/03/01 03:46:02;;;;;;;196.20;76.23;;;4.40;91.60;;;;;;4899521;29;20087;-74
2021/03/01 03:48:28;;;;;;;201.63;75.30;;;4.40;91.60;;;;;;4914750;29;20024;-77
2021/03/01 03:50:56;;;;;;;196.53;76.60;;;4.40;91.60;;;;;;4915073;29;20036;-74
2021/03/01 03:53:28;;;;;;;199.17;77.30;;;4.40;91.60;;;;;;4914740;29;20073;-74
2021/03/01 03:55:56;;;;;;;200.43;76.60;;;4.40;91.50;;;;;;4914926;29;20052;-74
2021/03/01 03:58:27;;;;;;;207.57;77.40;;;4.40;91.60;;;;;;4915210;29;20020;-74
2021/03/01 04:00:56;;;;;;;196.23;74.60;;;4.40;91.50;;;;;;4915593;29;20039;-73
2021/03/01 04:03:23;;;;;;;213.13;77.63;;;4.40;91.50;;;;;;4914812;29;20036;-74
2021/03/01 04:05:51;;;;;;;196.13;75.20;;;4.40;91.50;;;;;;4913069;29;20039;-73
2021/03/01 04:08:17;;;;;;;188.67;70.47;;;4.50;91.50;;;;;;4899252;29;20404;-74
2021/03/01 04:10:45;;;;;;;181.33;67.73;;;4.40;91.30;;;;;;4898274;29;20142;-74
2021/03/01 04:13:13;;;;;;;206.80;73.90;;;4.40;91.40;;;;;;4916035;29;20024;-74
2021/03/01 04:15:47;;;;;;;184.37;72.27;;;4.40;91.30;;;;;;4913591;29;20025;-73
2021/03/01 04:18:24;;;;;;;200.70;72.77;;;4.30;91.40;;;;;;4914699;29;20036;-75
2021/03/01 04:20:52;;;;;;;186.63;71.10;;;4.40;91.40;;;;;;4914002;29;20668;-74
2021/03/01 04:23:18;;;;;;;193.63;71.60;;;4.30;91.30;;;;;;4915619;29;20084;-74
2021/03/01 04:25:46;;;;;;;202.03;75.40;;;4.20;91.30;;;;;;4896667;29;20032;-74
2021/03/01 04:28:13;;;;;;;202.03;74.40;;;4.20;91.30;;;;;;4914528;29;20091;-74
2021/03/01 04:30:40;;;;;;;192.43;73.67;;;4.20;91.40;;;;;;4929079;29;20039;-74
2021/03/01 04:33:07;;;;;;;197.80;74.43;;;4.10;91.50;;;;;;4914087;29;20032;-75
2021/03/01 04:35:34;;;;;;;201.73;75.17;;;4.10;91.60;;;;;;4914846;29;20088;-75
2021/03/01 04:38:00;;;;;;;206.53;75.30;;;4.10;91.50;;;;;;4914525;29;20040;-74
2021/03/01 04:40:25;;;;;;;198.60;73.93;;;4.10;91.60;;;;;;4914227;29;20122;-74
2021/03/01 04:42:51;;;;;;;211.33;75.20;;;4.10;91.60;;;;;;4913042;29;20107;-75
2021/03/01 04:45:18;;;;;;;212.47;76.60;;;4.10;91.60;;;;;;4914702;29;20047;-76
2021/03/01 04:47:47;;;;;;;215.50;78.40;;;4.10;91.70;;;;;;4914647;29;20028;-75
2021/03/01 04:50:15;;;;;;;216.97;78.17;;;4.10;91.70;;;;;;4915325;29;20116;-75
2021/03/01 04:52:43;;;;;;;215.70;77.00;;;4.10;91.80;;;;;;4914387;29;20028;-76
2021/03/01 04:55:10;;;;;;;210.13;78.17;;;4.10;91.70;;;;;;4915339;29;20039;-76
2021/03/01 04:57:37;;;;;;;213.00;77.87;;;4.20;91.80;;;;;;4914804;29;20036;-76
2021/03/01 05:00:09;;;;;;;201.37;75.93;;;4.30;91.70;;;;;;4929311;29;20032;-76
2021/03/01 05:02:36;;;;;;;208.67;77.30;;;4.30;91.60;;;;;;4914893;29;20028;-75
2021/03/01 05:05:04;;;;;;;185.40;72.33;;;4.30;91.60;;;;;;4913991;29;20508;-75
2021/03/01 05:07:31;;;;;;;203.83;73.93;;;4.40;91.60;;;;;;4914328;29;20056;-73
2021/03/01 05:09:57;;;;;;;182.40;69.17;;;4.40;91.50;;;;;;4897600;29;20494;-74
2021/03/01 05:12:23;;;;;;;199.47;72.20;;;4.40;91.30;;;;;;4914810;29;20362;-75
2021/03/01 05:14:48;;;;;;;187.63;70.40;;;4.40;91.30;;;;;;4913320;29;20067;-75
2021/03/01 05:17:14;;;;;;;187.63;69.17;;;4.30;91.20;;;;;;4898469;29;20133;-75
2021/03/01 05:19:40;;;;;;;203.13;71.23;;;4.20;91.20;;;;;;4912914;29;20385;-75
2021/03/01 05:22:05;;;;;;;211.00;69.13;;;4.20;91.30;;;;;;4914965;29;20028;-75
2021/03/01 05:24:32;;;;;;;214.63;72.73;;;4.00;91.30;;;;;;4914199;29;20032;-75
2021/03/01 05:26:58;;;;;;;186.53;66.70;;;4.00;91.40;;;;;;4914035;29;20407;-75
2021/03/01 05:29:24;;;;;;;226.83;75.80;;;3.90;91.60;;;;;;4914920;29;20032;-74
2021/03/01 05:31:50;;;;;;;214.80;74.77;;;4.00;91.70;;;;;;4929108;29;20036;-75
2021/03/01 05:34:16;;;;;;;211.40;71.77;;;4.10;91.70;;;;;;4915452;29;20032;-75
2021/03/01 05:36:42;;;;;;;190.53;68.93;;;4.20;91.60;;;;;;4913476;29;20541;-75
2021/03/01 05:39:08;;;;;;;199.23;71.23;;;4.20;91.50;;;;;;4917829;29;20056;-76
2021/03/01 05:41:34;;;;;;;191.17;70.23;;;4.20;91.50;;;;;;4917269;29;20028;-75
2021/03/01 05:44:01;;;;;;;190.57;68.23;;;4.20;91.60;;;;;;4917083;29;20151;-76
2021/03/01 05:46:27;;;;;;;182.83;67.47;;;4.30;91.50;;;;;;4917927;29;20032;-74
2021/03/01 05:48:56;;;;;;;177.17;68.20;;;4.30;91.50;;;;;;4916461;29;20025;-76
2021/03/01 05:51:25;;;;;;;178.37;68.40;;;4.20;91.20;;;;;;4916951;29;20039;-75
2021/03/01 05:53:57;;;;;;;189.50;69.77;;;4.30;91.40;;;;;;4916430;29;20036;-76
2021/03/01 05:56:23;;;;;;;181.45;68.55;;;4.40;91.40;;;;;;4916591;29;20024;-75
2021/03/01 05:58:50;;;;;;;185.17;69.07;;;4.50;91.30;;;;;;4916261;29;20047;-75
2021/03/01 06:01:17;;;;;;;181.67;68.00;;;4.60;91.10;;;;;;4916952;29;20040;-75
2021/03/01 06:03:43;;;;;;;184.77;69.53;;;4.50;91.00;;;;;;4917309;29;20499;-76
2021/03/01 06:06:10;;;;;;;174.33;64.97;;;4.60;91.10;;;;;;4916607;29;20069;-75
2021/03/01 06:08:35;;;;;;;183.57;67.77;;;4.60;91.10;;;;;;4916972;29;20386;-75
2021/03/01 06:11:06;;;;;;;190.97;66.53;;;4.70;91.10;;;;;;4915644;29;20076;-75
2021/03/01 06:13:32;;;;;;;184.90;66.10;;;4.80;91.00;;;;;;4916839;29;20116;-76
2021/03/01 06:15:59;;;;;;;174.10;65.00;;;4.60;90.70;;;;;;4900662;29;20039;-76
2021/03/01 06:18:25;;;;;;;169.97;64.40;;;4.50;90.70;;;;;;4916732;29;20032;-76
2021/03/01 06:20:53;;;;;;;176.53;63.40;;;4.40;90.80;;;;;;4931763;29;20115;-76
2021/03/01 06:23:35;;;;;;;168.13;62.37;;;4.40;91.10;;;;;;4916251;29;20560;-75
2021/03/01 06:26:23;;;;;;;167.65;62.45;;;4.40;91.00;;;;;;4915728;29;20032;-75
2021/03/01 06:28:51;;;;;;;170.83;63.63;;;4.40;91.00;;;;;;4917196;29;20087;-76
2021/03/01 06:31:43;;;;;;;190.03;62.93;;;4.40;91.10;;;;;;4916051;29;20063;-76
2021/03/01 06:34:26;;;;;;;178.87;62.37;;;4.40;91.00;;;;;;4917552;29;20064;-76
2021/03/01 06:36:58;;;;;;;184.10;65.37;;;4.40;91.20;;;;;;4916655;29;20036;-76
2021/03/01 06:39:42;;;;;;;179.87;65.27;;;4.50;91.10;;;;;;4932102;29;20564;-76
2021/03/01 06:42:19;;;;;;;198.07;67.47;;;4.50;91.10;;;;;;4915011;29;20036;-76
2021/03/01 06:45:05;;;;;;;179.87;65.97;;;4.30;90.90;;;;;;4915838;29;20036;-77
2021/03/01 06:47:53;;;;;;;191.97;67.67;;;4.20;91.10;;;;;;4918320;29;20036;-75
2021/03/01 06:50:32;;;;;;;198.30;69.13;;;4.20;91.20;;;;;;4916250;29;20028;-76
2021/03/01 06:53:18;;;;;;;192.37;67.37;;;4.20;91.40;;;;;;4916721;29;20500;-76
2021/03/01 06:56:05;;;;;;;205.07;68.33;;;4.40;91.50;;;;;;4915049;29;20043;-77
2021/03/01 06:58:41;;;;;;;195.23;64.87;;;4.30;91.30;;;;;;4900233;29;20039;-76
2021/03/01 07:01:14;;;;;;;208.77;66.30;;;4.30;91.40;;;;;;4916445;29;20039;-76
2021/03/01 07:03:41;;;;;;;187.18;65.78;;;4.40;91.30;;;;;;4916335;29;20119;-76
2021/03/01 07:06:08;;;;;;;206.23;66.23;;;4.20;91.30;;;;;;4915135;29;20039;-76
2021/03/01 07:08:54;;;;;;;192.43;63.47;;;4.20;91.40;;;;;;4917278;29;20366;-76
2021/03/01 07:11:33;;;;;;;199.67;64.77;;;4.10;91.50;;;;;;4914862;29;20512;-76
2021/03/01 07:14:05;;;;;;;198.07;64.10;;;4.10;91.60;;;;;;4916251;29;20144;-76
2021/03/01 07:16:43;;;;;;;199.83;63.80;;;4.10;91.60;;;;;;4915540;29;20036;-75
2021/03/01 07:19:14;;;;;;;232.13;67.77;;;4.10;91.70;;;;;;4916306;29;20148;-75
2021/03/01 07:21:41;;;;;;;219.27;67.23;;;4.10;91.80;;;;;;4914908;29;20051;-75
2021/03/01 07:24:08;;;;;;;209.00;64.07;;;4.20;92.00;;;;;;4914998;29;20036;-76
2021/03/01 07:26:35;;;;;;;192.23;63.37;;;4.30;91.80;;;;;;4915720;29;20020;-74
2021/03/01 07:29:09;;;;;;;196.93;66.60;;;4.40;91.90;;;;;;4911295;29;20060;-75
2021/03/01 07:31:36;;;;;;;201.43;65.00;;;4.60;91.70;;;;;;4911960;29;20347;-76
2021/03/01 07:34:04;;;;;;;199.80;62.67;;;4.70;91.50;;;;;;4911416;29;20033;-76
2021/03/01 07:36:30;;;;;;;232.77;69.60;;;4.70;91.40;;;;;;4911981;29;20124;-75
2021/03/01 07:39:01;;;;;;;214.20;68.47;;;4.80;91.20;;;;;;4909792;29;20595;-75
2021/03/01 07:41:30;;;;;;;216.33;69.93;;;4.70;91.20;;;;;;4915043;29;20515;-75
2021/03/01 07:43:56;;;;;;;221.10;68.80;;;4.60;91.30;;;;;;4915631;29;20028;-75
2021/03/01 07:46:28;;;;;;;221.80;70.87;;;4.60;91.20;;;;;;4899351;29;20038;-75
2021/03/01 07:48:55;;;;;;;222.80;68.07;;;4.60;91.20;;;;;;4914104;29;20025;-75
2021/03/01 07:51:48;;;;;;;213.20;66.97;;;4.50;91.10;;;;;;4929910;29;20497;-75
2021/03/01 07:54:16;;;;;;;221.05;70.72;;;4.40;91.20;;;;;;4927346;29;20032;-75
2021/03/01 07:56:49;;;;;;;224.63;70.77;;;4.50;91.30;;;;;;4913697;29;20511;-74
2021/03/01 07:59:22;;;;;;;224.00;70.43;;;4.50;91.30;;;;;;4895192;29;20028;-75
2021/03/01 08:02:10;;;;;;;215.02;72.60;;;4.50;91.30;;;;;;4911329;29;20191;-74
2021/03/01 08:04:36;;;;;;;228.93;74.03;;;4.40;91.30;;;;;;4903920;29;20028;-74
2021/03/01 08:07:03;;;;;;;229.27;74.77;;;4.50;91.40;;;;;;4911867;29;20028;-75
2021/03/01 08:09:45;;;;;;;220.57;73.53;;;4.50;91.30;;;;;;4909960;29;20533;-74
2021/03/01 08:12:31;;;;;;;223.40;72.63;;;4.60;91.30;;;;;;4925736;29;20063;-75
2021/03/01 08:15:00;;;;;;;202.93;67.70;;;4.80;91.30;;;;;;4912274;29;20572;-76
2021/03/01 08:17:25;;;;;;;212.30;69.83;;;4.90;91.10;;;;;;4912656;29;20040;-75
2021/03/01 08:19:59;;;;;;;196.90;66.03;;;5.00;91.10;;;;;;4912815;29;20059;-76
2021/03/01 08:22:25;;;;;;;207.07;68.87;;;5.10;90.90;;;;;;4912210;29;20122;-75
2021/03/01 08:24:55;;;;;;;186.00;65.83;;;5.10;90.70;;;;;;4916437;29;20127;-75
2021/03/01 08:27:27;;;;;;;180.67;66.60;;;5.10;90.30;;;;;;4910257;29;20119;-76
2021/03/01 08:30:18;;;;;;;184.83;67.90;;;5.00;90.30;;;;;;4928368;29;20040;-77
2021/03/01 08:33:04;;;;;;;194.57;69.57;;;5.10;90.50;;;;;;4912193;29;20429;-75
2021/03/01 08:35:29;;;;;;;191.23;72.50;;;5.10;90.20;;;;;;4910608;29;20032;-75
2021/03/01 08:37:55;;;;;;;200.20;68.57;;;5.00;90.00;;;;;;4905341;29;20381;-77
2021/03/01 08:40:22;;;;;;;200.10;69.37;;;5.00;90.10;;;;;;4904118;29;20024;-75
2021/03/01 08:42:51;;;;;;;193.40;70.27;;;5.00;90.20;;;;;;4905946;29;20425;-75
2021/03/01 08:45:40;;;;;;;207.50;75.37;;;5.10;90.30;;;;;;4913774;29;20142;-75
2021/03/01 08:48:18;;;;;;;183.00;65.60;;;5.10;90.10;;;;;;4905351;29;20068;-75
2021/03/01 08:50:45;;;;;;;195.57;68.80;;;5.10;90.00;;;;;;4918859;29;20036;-76
2021/03/01 08:53:18;;;;;;;179.43;67.63;;;5.10;89.90;;;;;;4917297;29;20123;-76
2021/03/01 08:55:43;;;;;;;181.40;67.32;;;5.00;90.00;;;;;;4917350;29;20027;-76
2021/03/01 08:58:14;;;;;;;178.63;66.10;;;5.00;89.80;;;;;;4927393;29;20020;-76
2021/03/01 09:01:03;;;;;;;203.57;72.20;;;5.00;90.00;;;;;;4916985;29;20032;-76
2021/03/01 09:03:42;;;;;;;190.40;69.80;;;5.00;90.00;;;;;;4910471;29;20436;-78
2021/03/01 09:06:09;;;;;;;185.10;66.60;;;5.00;89.90;;;;;;4893657;29;20076;-76
2021/03/01 09:08:46;;;;;;;189.17;69.67;;;5.00;89.80;;;;;;4910617;29;20381;-75
2021/03/01 09:11:14;;;;;;;187.30;71.33;;;5.10;89.90;;;;;;4926741;29;20087;-75
2021/03/01 09:13:42;;;;;;;182.63;70.23;;;5.30;89.50;;;;;;4916687;29;20032;-77
2021/03/01 09:16:14;;;;;;;180.40;70.20;;;5.50;89.00;;;;;;4911984;29;20024;-75
2021/03/01 09:18:41;;;;;;;171.50;66.30;;;5.40;88.20;;;;;;4915453;29;20031;-77
2021/03/01 09:21:08;;;;;;;158.70;64.40;;;5.50;88.50;;;;;;4921154;29;20024;-75
2021/03/01 09:23:37;;;;;;;171.50;66.53;;;5.70;88.70;;;;;;4918551;29;20032;-76
2021/03/01 09:26:04;;;;;;;168.47;68.37;;;5.90;87.70;;;;;;4919358;29;20037;-78
2021/03/01 09:28:35;;;;;;;152.37;62.53;;;6.10;87.60;;;;;;4918551;29;20056;-76
2021/03/01 09:31:05;;;;;;;153.40;65.77;;;6.20;86.20;;;;;;4918166;29;20083;-78
2021/03/01 09:33:31;;;;;;;160.03;64.07;;;6.30;86.70;;;;;;4917063;29;20071;-76
2021/03/01 09:35:57;;;;;;;155.13;65.47;;;6.40;85.60;;;;;;4917458;29;20071;-76
2021/03/01 09:38:22;;;;;;;157.80;63.47;;;6.50;85.00;;;;;;4918041;29;20306;-76
2021/03/01 09:40:56;;;;;;;159.90;64.83;;;6.40;84.90;;;;;;4929710;29;20032;-76
2021/03/01 09:43:23;;;;;;;156.97;65.77;;;6.20;85.20;;;;;;4935645;29;20024;-76
2021/03/01 09:45:50;;;;;;;157.43;66.53;;;6.20;85.20;;;;;;4922159;29;20062;-76
2021/03/01 09:48:16;;;;;;;160.50;70.07;;;6.40;85.40;;;;;;4922855;29;20028;-77
2021/03/01 09:50:41;;;;;;;164.13;69.70;;;6.50;85.20;;;;;;4937261;29;20480;-77
2021/03/01 09:53:07;;;;;;;152.67;67.43;;;6.80;84.70;;;;;;4906150;29;20032;-76
2021/03/01 09:55:33;;;;;;;155.93;68.17;;;6.80;83.10;;;;;;4940201;29;20051;-77
2021/03/01 09:57:59;;;;;;;168.23;70.10;;;6.90;83.70;;;;;;4938738;29;20032;-76
2021/03/01 10:00:30;;;;;;;159.50;67.57;;;6.90;82.60;;;;;;4932511;29;20047;-76
2021/03/01 10:03:04;;;;;;;151.13;65.33;;;6.80;83.30;;;;;;4937511;29;20071;-75
2021/03/01 10:05:32;;;;;;;151.67;65.13;;;7.00;82.90;;;;;;4927578;29;20040;-75
2021/03/01 10:08:02;;;;;;;147.80;63.80;;;7.00;82.50;;;;;;4921479;29;20062;-74
2021/03/01 10:10:41;;;;;;;147.33;65.80;;;6.90;82.70;;;;;;4927889;29;20058;-75
2021/03/01 10:13:08;;;;;;;149.97;65.80;;;7.40;83.20;;;;;;4938668;29;20040;-76
2021/03/01 10:15:44;;;;;;;143.87;63.80;;;7.90;81.10;;;;;;4938733;29;20086;-75
2021/03/01 10:18:12;;;;;;;136.17;64.83;;;8.20;78.80;;;;;;4936605;29;20038;-75
2021/03/01 10:20:59;;;;;;;133.83;61.90;;;8.50;78.30;;;;;;4936635;29;20095;-75
2021/03/01 10:23:30;;;;;;;134.83;64.43;;;8.90;77.00;;;;;;4936923;29;20155;-75
2021/03/01 10:26:21;;;;;;;123.90;60.63;;;8.90;75.40;;;;;;4933495;29;20078;-75
2021/03/01 10:28:53;;;;;;;132.00;64.73;;;8.70;76.00;;;;;;4916536;29;20036;-75
2021/03/01 10:31:22;;;;;;;132.05;60.72;;;8.40;76.30;;;;;;4920994;29;20062;-75
2021/03/01 10:34:04;;;;;;;147.83;68.30;;;8.50;76.70;;;;;;4930135;29;20043;-75
2021/03/01 10:36:48;;;;;;;141.95;68.38;;;8.90;75.50;;;;;;4931975;29;20484;-75
2021/03/01 10:39:35;;;;;;;134.60;66.23;;;8.90;75.20;;;;;;4934540;29;20048;-77
2021/03/01 10:42:13;;;;;;;132.93;66.30;;;9.00;75.30;;;;;;4921107;29;20043;-76
2021/03/01 10:45:08;;;;;;;129.63;64.10;;;9.40;74.90;;;;;;4919972;29;20032;-76
2021/03/01 10:47:34;;;;;;;134.33;65.13;;;9.50;73.10;;;;;;4907977;29;20500;-77
2021/03/01 10:50:03;;;;;;;134.83;63.23;;;9.10;74.40;;;;;;4935338;29;20032;-76
2021/03/01 10:52:29;;;;;;;124.33;60.77;;;9.10;74.40;;;;;;4931936;29;20230;-76
2021/03/01 10:54:57;;;;;;;120.80;58.37;;;9.00;74.40;;;;;;4919326;29;20132;-76
2021/03/01 10:57:24;;;;;;;126.53;59.07;;;9.00;75.20;;;;;;4934504;29;20039;-76
2021/03/01 10:59:52;;;;;;;122.87;61.27;;;9.10;74.30;;;;;;4933030;29;20067;-76
2021/03/01 11:02:18;;;;;;;125.47;60.90;;;9.20;74.60;;;;;;4931184;29;20067;-76
2021/03/01 11:04:45;;;;;;;125.57;61.00;;;9.60;74.20;;;;;;4916315;29;20040;-75
2021/03/01 11:07:11;;;;;;;121.70;62.33;;;10.00;73.20;;;;;;4934012;29;20031;-75
2021/03/01 11:09:36;;;;;;;116.27;59.70;;;10.50;72.00;;;;;;4931521;29;20079;-76
2021/03/01 11:12:04;;;;;;;110.27;57.87;;;11.20;70.50;;;;;;4936025;29;20121;-77
2021/03/01 11:14:30;;;;;;;106.97;56.73;;;11.40;68.00;;;;;;4932114;29;20118;-76
2021/03/01 11:16:57;;;;;;;108.47;58.43;;;11.00;68.70;;;;;;4918883;29;20262;-76
2021/03/01 11:19:23;;;;;;;116.37;62.93;;;10.60;69.30;;;;;;4916231;29;20429;-76
2021/03/01 11:21:49;;;;;;;112.67;59.70;;;10.40;70.00;;;;;;4931855;29;20114;-76
2021/03/01 11:24:14;;;;;;;121.47;62.50;;;10.20;70.30;;;;;;4898857;29;20036;-76
2021/03/01 11:26:40;;;;;;;122.00;63.23;;;10.30;69.70;;;;;;4916808;29;20028;-76
2021/03/01 11:29:06;;;;;;;120.93;63.17;;;10.10;70.70;;;;;;4919461;29;20114;-76
2021/03/01 11:31:33;;;;;;;118.17;60.50;;;10.10;70.60;;;;;;4916731;29;20036;-75
2021/03/01 11:34:04;;;;;;;118.80;61.43;;;10.00;71.60;;;;;;4934550;29;20039;-77
2021/03/01 11:36:30;;;;;;;120.77;63.03;;;10.10;71.10;;;;;;4932576;29;20803;-75
2021/03/01 11:38:56;;;;;;;110.97;57.63;;;9.90;71.30;;;;;;4934769;29;20119;-76
2021/03/01 11:41:21;;;;;;;125.87;61.27;;;9.90;71.70;;;;;;4931434;29;20064;-77
2021/03/01 11:43:48;;;;;;;120.57;61.97;;;10.00;71.70;;;;;;4912839;29;20066;-76
2021/03/01 11:46:15;;;;;;;124.33;62.07;;;10.10;71.50;;;;;;4898751;29;20039;-77
2021/03/01 11:48:40;;;;;;;112.73;58.40;;;10.30;71.30;;;;;;4909217;29;20043;-76
2021/03/01 11:51:06;;;;;;;120.67;60.73;;;10.50;71.70;;;;;;4918220;29;20028;-76
2021/03/01 11:53:32;;;;;;;118.63;61.27;;;10.70;70.00;;;;;;4921512;29;20036;-76
2021/03/01 11:55:57;;;;;;;122.07;61.50;;;10.60;70.30;;;;;;4915947;29;20036;-76
2021/03/01 11:58:23;;;;;;;110.23;58.03;;;10.70;69.50;;;;;;4933037;29;20034;-76
2021/03/01 12:00:49;;;;;;;108.23;58.47;;;10.50;70.40;;;;;;4902848;29;20043;-77
2021/03/01 12:03:14;;;;;;;113.23;59.57;;;10.90;70.30;;;;;;4911897;29;20118;-78
2021/03/01 12:05:41;;;;;;;114.43;59.67;;;11.10;68.90;;;;;;4932099;29;20030;-75
2021/03/01 12:08:08;;;;;;;110.03;58.43;;;11.30;68.40;;;;;;4935432;29;20111;-75
2021/03/01 12:10:35;;;;;;;102.50;54.13;;;10.90;68.30;;;;;;4930709;29;20031;-75
2021/03/01 12:13:02;;;;;;;108.00;57.13;;;11.10;69.10;;;;;;4931382;29;20143;-76
2021/03/01 12:15:28;;;;;;;104.50;57.03;;;11.30;68.10;;;;;;4932686;29;20036;-74
2021/03/01 12:17:54;;;;;;;109.43;58.47;;;11.20;69.00;;;;;;4904741;29;20033;-77
2021/03/01 12:20:20;;;;;;;109.20;57.77;;;11.30;67.70;;;;;;4907249;29;20046;-76
2021/03/01 12:22:45;;;;;;;115.10;59.90;;;11.10;68.00;;;;;;4925596;29;20481;-75
2021/03/01 12:25:11;;;;;;;123.17;63.40;;;10.70;68.30;;;;;;4918384;29;20068;-75
2021/03/01 12:27:37;;;;;;;122.70;61.97;;;10.50;69.90;;;;;;4905423;29;20047;-75
2021/03/01 12:30:08;;;;;;;118.37;62.57;;;10.80;70.20;;;;;;4914969;29;20397;-77
2021/03/01 12:32:34;;;;;;;114.73;60.50;;;10.90;69.40;;;;;;4896895;29;20056;-76
2021/03/01 12:35:00;;;;;;;119.93;60.07;;;10.70;69.00;;;;;;4915473;29;20119;-76
2021/03/01 12:37:27;;;;;;;120.00;60.73;;;10.50;70.20;;;;;;4909811;29;20024;-76